Time;durP1;ratioP1;P1;durP2;ratioP2;P2;SDS_P1;SDS_P2;PMS_P1;PMS_P2;Temp;Humidity;BMP_temperature;BMP_pressure;BME280_temperature;BME280_humidity;BME280_pressure;Samples;Min_cycle;Max_cycle;Signal;HPM_P1;HPM_P2
2023/07/01 00:00:53;;;;;;;5.45;3.63;;;23.80;93.10;;;;;;5016080;28;20467;-88
2023/07/01 00:03:19;;;;;;;3.83;3.17;;;23.80;93.20;;;;;;5016193;28;20026;-87
2023/07/01 00:05:44;;;;;;;5.53;3.35;;;23.80;93.20;;;;;;5016032;28;20025;-87
2023/07/01 00:08:10;;;;;;;4.18;3.70;;;23.80;93.20;;;;;;5016081;28;20105;-87
2023/07/01 00:10:36;;;;;;;4.18;3.25;;;23.80;93.20;;;;;;5015644;28;20042;-87
2023/07/01 00:13:02;;;;;;;3.58;3.25;;;23.80;93.20;;;;;;5015784;28;20144;-87
2023/07/01 00:15:28;;;;;;;5.70;3.67;;;23.80;93.20;;;;;;5015893;28;20029;-87
2023/07/01 00:17:54;;;;;;;3.47;3.17;;;23.80;93.10;;;;;;5015787;28;20034;-87
2023/07/01 00:20:26;;;;;;;13.05;4.65;;;23.80;93.10;;;;;;5015745;28;20029;-87
2023/07/01 00:22:53;;;;;;;4.95;3.35;;;23.80;93.10;;;;;;5015715;28;20022;-87
2023/07/01 00:25:19;;;;;;;6.43;3.67;;;23.70;93.00;;;;;;5015644;28;20026;-87
2023/07/01 00:27:45;;;;;;;4.72;2.97;;;23.70;93.00;;;;;;5014360;28;20042;-87
2023/07/01 00:30:11;;;;;;;6.15;3.53;;;23.70;93.00;;;;;;5015630;28;20025;-87
2023/07/01 00:32:37;;;;;;;5.90;3.60;;;23.70;93.10;;;;;;5015408;28;20080;-87
2023/07/01 00:35:02;;;;;;;4.57;3.90;;;23.70;93.20;;;;;;5015577;28;20033;-87
2023/07/01 00:37:30;;;;;;;8.40;4.10;;;23.70;93.20;;;;;;5015388;28;20076;-87
2023/07/01 00:39:56;;;;;;;4.85;3.60;;;23.70;93.30;;;;;;5015320;28;20030;-87
2023/07/01 00:42:21;;;;;;;4.78;3.78;;;23.70;93.40;;;;;;4997266;28;20038;-87
2023/07/01 00:44:47;;;;;;;5.07;4.35;;;23.70;93.50;;;;;;5015324;28;20041;-87
2023/07/01 00:47:13;;;;;;;4.80;3.90;;;23.70;93.40;;;;;;5015354;28;20084;-87
2023/07/01 00:49:39;;;;;;;4.88;4.38;;;23.70;93.20;;;;;;5015112;28;20033;-87
2023/07/01 00:52:06;;;;;;;5.05;3.63;;;23.60;93.10;;;;;;5015125;28;20022;-87
2023/07/01 00:54:35;;;;;;;6.97;4.13;;;23.60;93.10;;;;;;5014949;28;20505;-87
2023/07/01 00:57:04;;;;;;;5.00;4.05;;;23.60;93.10;;;;;;5015051;28;20097;-88
2023/07/01 00:59:32;;;;;;;4.32;3.75;;;23.60;93.10;;;;;;5015066;28;20021;-87
2023/07/01 01:02:03;;;;;;;4.97;4.30;;;23.60;93.10;;;;;;5014849;28;20486;-89
2023/07/01 01:04:38;;;;;;;4.55;4.00;;;23.60;93.00;;;;;;5014939;28;20018;-88
2023/07/01 01:07:16;;;;;;;5.60;4.45;;;23.60;93.00;;;;;;5014959;28;20022;-88
2023/07/01 01:09:47;;;;;;;6.28;3.92;;;23.60;93.00;;;;;;5014805;28;20037;-89
2023/07/01 01:12:14;;;;;;;4.82;3.88;;;23.60;92.90;;;;;;5014630;28;20108;-87
2023/07/01 01:14:42;;;;;;;4.40;3.90;;;23.60;92.80;;;;;;4996855;28;20036;-87
2023/07/01 01:17:12;;;;;;;4.85;3.75;;;23.60;92.80;;;;;;5014830;28;20030;-87
2023/07/01 01:19:44;;;;;;;4.47;3.90;;;23.60;92.90;;;;;;5014721;28;20030;-87
2023/07/01 01:22:40;;;;;;;5.32;3.97;;;23.50;92.90;;;;;;5014520;28;20017;-87
2023/07/01 01:25:08;;;;;;;3.72;3.40;;;23.60;93.10;;;;;;5014706;28;20049;-87
2023/07/01 01:27:41;;;;;;;5.15;3.65;;;23.60;93.20;;;;;;4996643;28;20029;-87
2023/07/01 01:30:07;;;;;;;3.97;3.50;;;23.50;93.00;;;;;;5014490;28;20026;-87
2023/07/01 01:32:34;;;;;;;4.22;3.67;;;23.50;92.90;;;;;;5014238;28;20053;-83
2023/07/01 01:35:00;;;;;;;5.57;3.83;;;23.50;92.90;;;;;;5014067;28;20525;-84
2023/07/01 01:38:15;;;;;;;6.53;3.63;;;23.50;93.00;;;;;;5014320;28;20091;-84
2023/07/01 01:40:44;;;;;;;5.90;4.25;;;23.50;93.00;;;;;;5011517;28;20092;-83
2023/07/01 01:43:24;;;;;;;4.05;3.40;;;23.50;93.00;;;;;;4996603;28;20057;-83
2023/07/01 01:45:51;;;;;;;3.97;3.15;;;23.50;93.00;;;;;;5014170;28;20088;-83
2023/07/01 01:48:17;;;;;;;3.38;3.08;;;23.50;93.00;;;;;;5014118;28;20029;-83
2023/07/01 01:50:47;;;;;;;6.90;3.47;;;23.50;93.20;;;;;;5013798;28;20068;-83
2023/07/01 01:53:12;;;;;;;4.97;3.30;;;23.50;93.10;;;;;;5013488;28;20084;-83
2023/07/01 01:55:39;;;;;;;4.93;3.22;;;23.50;93.20;;;;;;5014142;28;20034;-82
2023/07/01 01:58:05;;;;;;;5.75;3.03;;;23.50;93.20;;;;;;5013894;28;20026;-83
2023/07/01 02:00:34;;;;;;;4.85;3.20;;;23.50;93.50;;;;;;5013909;28;20041;-83
2023/07/01 02:03:00;;;;;;;3.50;3.10;;;23.50;93.30;;;;;;5013638;28;20052;-83
2023/07/01 02:05:26;;;;;;;4.57;3.08;;;23.50;93.20;;;;;;5013980;28;20076;-83
2023/07/01 02:07:52;;;;;;;4.10;2.75;;;23.50;93.10;;;;;;5013784;28;20034;-82
2023/07/01 02:10:19;;;;;;;4.15;2.90;;;23.50;93.10;;;;;;5013301;28;20041;-83
2023/07/01 02:12:45;;;;;;;3.83;3.15;;;23.50;93.10;;;;;;5012680;28;20478;-84
2023/07/01 02:15:11;;;;;;;4.30;2.83;;;23.40;93.20;;;;;;5013497;28;20389;-84
2023/07/01 02:17:37;;;;;;;5.95;3.63;;;23.50;93.10;;;;;;5013545;28;20030;-83
2023/07/01 02:20:04;;;;;;;4.40;3.13;;;23.40;93.20;;;;;;5013531;28;20026;-84
2023/07/01 02:22:29;;;;;;;3.53;3.13;;;23.40;93.20;;;;;;5013273;28;20041;-83
2023/07/01 02:24:55;;;;;;;3.67;3.20;;;23.40;93.20;;;;;;5013212;28;20038;-83
2023/07/01 02:27:22;;;;;;;3.92;3.05;;;23.40;93.10;;;;;;5013251;28;20034;-83
2023/07/01 02:29:48;;;;;;;4.25;3.13;;;23.50;93.30;;;;;;5013683;28;20129;-83
2023/07/01 02:32:14;;;;;;;5.00;2.70;;;23.40;93.30;;;;;;5013386;28;20478;-83
2023/07/01 02:34:39;;;;;;;7.05;2.85;;;23.40;93.20;;;;;;5013431;28;20085;-83
2023/07/01 02:37:05;;;;;;;3.83;2.60;;;23.50;93.10;;;;;;5013289;28;20088;-83
2023/07/01 02:39:31;;;;;;;4.28;2.90;;;23.50;93.10;;;;;;5013033;28;20034;-83
2023/07/01 02:41:57;;;;;;;4.80;3.05;;;23.50;93.00;;;;;;5013272;28;20034;-84
2023/07/01 02:44:22;;;;;;;3.20;2.40;;;23.50;93.00;;;;;;5013122;28;20057;-84
2023/07/01 02:46:48;;;;;;;3.40;2.95;;;23.50;93.00;;;;;;5013546;28;20155;-84
2023/07/01 02:49:14;;;;;;;3.78;2.78;;;23.50;92.90;;;;;;5013210;28;20026;-84
2023/07/01 02:51:41;;;;;;;3.60;2.80;;;23.50;92.80;;;;;;5015262;28;20511;-84
2023/07/01 02:54:07;;;;;;;3.83;2.80;;;23.50;92.80;;;;;;4999886;28;20462;-84
2023/07/01 02:56:33;;;;;;;6.05;2.95;;;23.50;92.80;;;;;;5017630;28;20137;-83
2023/07/01 02:58:58;;;;;;;8.95;3.50;;;23.40;92.70;;;;;;5017509;28;20466;-83
2023/07/01 03:01:24;;;;;;;3.20;2.90;;;23.40;92.80;;;;;;5017219;28;20034;-83
2023/07/01 03:03:50;;;;;;;3.60;2.60;;;23.40;92.70;;;;;;5017003;28;20026;-84
2023/07/01 03:06:16;;;;;;;4.07;3.20;;;23.40;92.70;;;;;;5017246;28;20037;-83
2023/07/01 03:08:42;;;;;;;3.53;2.90;;;23.40;92.80;;;;;;5016950;28;20041;-83
2023/07/01 03:11:08;;;;;;;3.83;3.05;;;23.40;92.80;;;;;;4998947;28;20429;-83
2023/07/01 03:13:37;;;;;;;6.43;3.30;;;23.40;93.00;;;;;;5016882;28;20458;-83
2023/07/01 03:16:06;;;;;;;3.03;2.50;;;23.40;92.70;;;;;;5016853;28;20022;-83
2023/07/01 03:18:32;;;;;;;4.28;2.92;;;23.40;92.70;;;;;;5017198;28;20018;-83
2023/07/01 03:21:00;;;;;;;4.93;3.40;;;23.40;92.80;;;;;;5016784;28;20041;-83
2023/07/01 03:23:27;;;;;;;4.35;2.70;;;23.40;92.80;;;;;;4999317;28;20405;-83
2023/07/01 03:25:53;;;;;;;4.07;3.13;;;23.40;92.80;;;;;;5016546;28;20026;-83
2023/07/01 03:28:18;;;;;;;5.35;3.10;;;23.40;93.00;;;;;;5016648;28;20045;-83
2023/07/01 03:30:44;;;;;;;8.23;3.78;;;23.40;92.90;;;;;;5016922;28;20418;-83
2023/07/01 03:33:12;;;;;;;7.57;3.83;;;23.40;93.00;;;;;;5016621;28;20040;-84
2023/07/01 03:35:38;;;;;;;10.15;4.80;;;23.40;93.10;;;;;;5016692;28;20022;-84
2023/07/01 03:38:04;;;;;;;5.07;4.00;;;23.30;93.20;;;;;;5016616;28;20032;-84
2023/07/01 03:40:29;;;;;;;6.90;3.90;;;23.30;93.20;;;;;;5016897;28;20018;-85
2023/07/01 03:42:55;;;;;;;4.90;3.97;;;23.30;93.30;;;;;;5016207;28;20033;-84
2023/07/01 03:45:21;;;;;;;9.23;4.13;;;23.30;93.50;;;;;;5016624;28;20113;-84
2023/07/01 03:47:46;;;;;;;4.00;3.60;;;23.30;93.60;;;;;;5016422;28;20084;-84
2023/07/01 03:50:13;;;;;;;5.40;4.13;;;23.30;93.70;;;;;;5016666;28;20097;-83
2023/07/01 03:52:40;;;;;;;7.25;3.95;;;23.40;93.80;;;;;;5016089;28;20048;-83
2023/07/01 03:55:07;;;;;;;6.55;4.15;;;23.40;93.80;;;;;;4998658;28;20108;-84
2023/07/01 03:57:34;;;;;;;5.93;4.10;;;23.40;93.70;;;;;;4998840;28;20041;-84
2023/07/01 04:00:00;;;;;;;5.18;4.00;;;23.30;93.60;;;;;;5016273;28;20022;-83
2023/07/01 04:02:26;;;;;;;5.88;3.47;;;23.30;93.90;;;;;;5014863;28;20049;-87
2023/07/01 04:04:52;;;;;;;5.18;3.60;;;23.30;93.70;;;;;;5015880;28;20050;-88
2023/07/01 04:07:21;;;;;;;3.85;3.22;;;23.30;93.60;;;;;;5015831;28;20461;-87
2023/07/01 04:09:50;;;;;;;5.22;3.70;;;23.30;93.70;;;;;;5015954;28;20092;-88
2023/07/01 04:12:16;;;;;;;4.18;3.60;;;23.30;93.70;;;;;;5015817;28;20050;-88
2023/07/01 04:14:42;;;;;;;4.18;3.38;;;23.30;93.80;;;;;;5015790;28;20097;-89
2023/07/01 04:17:08;;;;;;;5.50;3.97;;;23.30;93.90;;;;;;5015651;28;20113;-88
2023/07/01 04:19:34;;;;;;;6.70;3.45;;;23.40;93.90;;;;;;5015752;28;20021;-89
2023/07/01 04:21:59;;;;;;;4.85;3.15;;;23.40;93.80;;;;;;5015643;28;20030;-89
2023/07/01 04:24:25;;;;;;;5.00;3.15;;;23.30;93.80;;;;;;5015662;28;20018;-89
2023/07/01 04:26:52;;;;;;;3.72;3.13;;;23.40;93.90;;;;;;5015825;28;20029;-88
2023/07/01 04:29:17;;;;;;;4.78;3.03;;;23.30;93.80;;;;;;5015585;28;20359;-89
2023/07/01 04:31:43;;;;;;;5.45;3.33;;;23.30;93.70;;;;;;5015444;28;20037;-90
2023/07/01 04:34:09;;;;;;;4.15;2.90;;;23.30;93.80;;;;;;5015594;28;20080;-88
2023/07/01 04:36:34;;;;;;;3.90;3.00;;;23.20;93.70;;;;;;5015562;28;20025;-87
2023/07/01 04:39:03;;;;;;;3.80;2.95;;;23.20;93.70;;;;;;5015486;28;20018;-87
2023/07/01 04:41:29;;;;;;;5.72;2.95;;;23.20;93.80;;;;;;5014975;28;20029;-87
2023/07/01 04:43:55;;;;;;;5.68;3.47;;;23.10;94.00;;;;;;5015289;28;20101;-88
2023/07/01 04:46:20;;;;;;;5.07;3.22;;;23.20;94.20;;;;;;5015237;28;20033;-88
2023/07/01 04:48:46;;;;;;;5.43;3.40;;;23.20;94.20;;;;;;4997612;28;20513;-87
2023/07/01 04:51:12;;;;;;;5.25;3.00;;;23.20;94.00;;;;;;5015079;28;20050;-87
2023/07/01 04:53:38;;;;;;;3.90;3.25;;;23.10;93.80;;;;;;5014620;28;20108;-87
2023/07/01 04:56:04;;;;;;;4.50;3.05;;;23.10;93.80;;;;;;5014937;28;20033;-88
2023/07/01 04:58:30;;;;;;;7.70;3.47;;;23.10;93.90;;;;;;5015215;28;20045;-87
2023/07/01 05:00:56;;;;;;;4.38;3.53;;;23.10;94.00;;;;;;5015134;28;20022;-88
2023/07/01 05:03:21;;;;;;;6.28;4.18;;;23.10;94.00;;;;;;5014887;28;20458;-88
2023/07/01 05:05:47;;;;;;;6.53;3.90;;;23.10;94.00;;;;;;5014946;28;20473;-88
2023/07/01 05:08:13;;;;;;;5.93;4.13;;;23.10;94.00;;;;;;5015143;28;20104;-88
2023/07/01 05:10:38;;;;;;;4.95;3.67;;;23.10;94.00;;;;;;5014670;28;20022;-87
2023/07/01 05:13:04;;;;;;;6.47;3.80;;;23.10;94.10;;;;;;5014823;28;20084;-88
2023/07/01 05:15:30;;;;;;;6.50;3.97;;;23.10;93.90;;;;;;5014464;28;20018;-87
2023/07/01 05:17:55;;;;;;;8.18;3.90;;;23.10;93.90;;;;;;5014693;28;20034;-87
2023/07/01 05:20:21;;;;;;;5.85;4.13;;;23.00;93.80;;;;;;5014755;28;20017;-88
2023/07/01 05:22:47;;;;;;;5.97;4.45;;;23.00;94.00;;;;;;5014362;28;20034;-87
2023/07/01 05:25:12;;;;;;;6.85;4.75;;;23.00;94.10;;;;;;5014518;28;20022;-87
2023/07/01 05:27:38;;;;;;;6.22;4.53;;;23.00;94.00;;;;;;5014397;28;20058;-88
2023/07/01 05:30:05;;;;;;;5.60;4.38;;;23.00;94.10;;;;;;5014229;28;20033;-87
2023/07/01 05:32:30;;;;;;;5.60;4.60;;;23.00;94.10;;;;;;5014295;28;20034;-88
2023/07/01 05:34:56;;;;;;;6.90;4.03;;;23.00;94.20;;;;;;4996856;28;20030;-88
2023/07/01 05:37:21;;;;;;;8.10;5.30;;;23.00;94.20;;;;;;5014623;28;20033;-88
2023/07/01 05:39:48;;;;;;;5.00;4.38;;;23.10;94.20;;;;;;5014353;28;20034;-88
2023/07/01 05:42:13;;;;;;;6.88;4.30;;;23.00;94.10;;;;;;4996108;28;20398;-88
2023/07/01 05:44:39;;;;;;;7.35;4.95;;;23.10;94.20;;;;;;5014478;28;20028;-88
2023/07/01 05:47:05;;;;;;;4.03;3.40;;;23.00;94.10;;;;;;5014157;28;20029;-88
2023/07/01 05:49:30;;;;;;;5.88;4.47;;;23.00;94.00;;;;;;5014009;28;20033;-88
2023/07/01 05:51:56;;;;;;;6.22;4.82;;;23.00;94.00;;;;;;5014105;28;20532;-88
2023/07/01 05:54:23;;;;;;;5.57;4.15;;;23.00;94.30;;;;;;4996317;28;20029;-88
2023/07/01 05:56:48;;;;;;;6.07;4.68;;;23.00;94.50;;;;;;5014113;28;20113;-87
2023/07/01 05:59:14;;;;;;;6.13;4.93;;;23.00;94.60;;;;;;5013955;28;20484;-86
2023/07/01 06:01:40;;;;;;;4.88;4.35;;;23.00;94.50;;;;;;5013819;28;20433;-87
2023/07/01 06:04:05;;;;;;;7.03;4.63;;;23.00;94.60;;;;;;5013594;28;20109;-87
2023/07/01 06:06:31;;;;;;;7.57;4.45;;;23.00;94.50;;;;;;5014051;28;20022;-87
2023/07/01 06:08:57;;;;;;;4.32;3.92;;;23.00;94.30;;;;;;5013763;28;20022;-88
2023/07/01 06:11:22;;;;;;;8.10;4.53;;;23.00;94.30;;;;;;5013404;28;20125;-87
2023/07/01 06:13:48;;;;;;;5.70;4.43;;;22.90;94.50;;;;;;5013679;28;20088;-88
2023/07/01 06:16:14;;;;;;;7.65;4.47;;;23.00;94.80;;;;;;5013807;28;20032;-87
2023/07/01 06:18:41;;;;;;;5.95;4.40;;;23.00;94.90;;;;;;4996103;28;20026;-87
2023/07/01 06:21:08;;;;;;;6.45;4.40;;;23.00;94.70;;;;;;5013440;28;20490;-88
2023/07/01 06:23:35;;;;;;;5.45;4.68;;;23.00;94.70;;;;;;5013453;28;20014;-87
2023/07/01 06:26:01;;;;;;;7.82;4.57;;;23.00;94.70;;;;;;5012609;28;20471;-87
2023/07/01 06:28:26;;;;;;;4.65;3.60;;;23.10;94.70;;;;;;5013548;28;20019;-88
2023/07/01 06:30:52;;;;;;;5.90;4.35;;;23.10;94.60;;;;;;4995688;28;20026;-87
2023/07/01 06:33:18;;;;;;;5.15;4.65;;;23.10;94.60;;;;;;5013580;28;20057;-86
2023/07/01 06:35:45;;;;;;;4.93;4.07;;;23.10;94.70;;;;;;4995887;28;20033;-87
2023/07/01 06:38:11;;;;;;;5.00;4.50;;;23.20;94.80;;;;;;5013361;28;20018;-86
2023/07/01 06:40:37;;;;;;;5.32;4.43;;;23.20;94.80;;;;;;5013683;28;20050;-83
2023/07/01 06:43:03;;;;;;;4.75;4.25;;;23.20;94.70;;;;;;5002968;28;20128;-83
2023/07/01 06:45:29;;;;;;;4.72;4.20;;;23.20;94.70;;;;;;5012789;28;20038;-82
2023/07/01 06:47:56;;;;;;;5.60;4.35;;;23.30;94.60;;;;;;5008767;28;20026;-83
2023/07/01 06:50:21;;;;;;;6.43;4.30;;;23.30;94.50;;;;;;5012509;28;20419;-83
2023/07/01 06:52:47;;;;;;;5.05;3.75;;;23.30;94.50;;;;;;4994939;28;20125;-90
2023/07/01 06:55:13;;;;;;;4.53;3.85;;;23.40;94.40;;;;;;5012708;28;20437;-91
2023/07/01 06:57:40;;;;;;;7.28;4.07;;;23.30;94.50;;;;;;5012208;28;20104;-91
2023/07/01 07:00:09;;;;;;;4.95;3.92;;;23.40;94.50;;;;;;5013309;28;20026;-91
2023/07/01 07:02:35;;;;;;;6.60;4.18;;;23.40;94.50;;;;;;4995587;28;20352;-90
2023/07/01 07:05:02;;;;;;;4.35;3.90;;;23.40;94.30;;;;;;5013006;28;20517;-90
2023/07/01 07:07:27;;;;;;;4.38;3.97;;;23.40;94.50;;;;;;5012755;28;20030;-91
2023/07/01 07:09:53;;;;;;;3.95;3.55;;;23.50;94.30;;;;;;5011641;28;20120;-91
2023/07/01 07:12:19;;;;;;;4.85;3.65;;;23.40;94.40;;;;;;4995405;28;20395;-89
2023/07/01 07:14:45;;;;;;;4.80;3.80;;;23.40;94.20;;;;;;5013294;28;20034;-90
2023/07/01 07:17:10;;;;;;;4.07;3.15;;;23.40;94.10;;;;;;5013127;28;20159;-89
2023/07/01 07:19:37;;;;;;;5.80;3.92;;;23.50;94.10;;;;;;5011797;28;20034;-91
2023/07/01 07:22:03;;;;;;;4.28;3.88;;;23.50;94.20;;;;;;5011897;28;20029;-91
2023/07/01 07:24:29;;;;;;;4.53;3.70;;;23.50;94.10;;;;;;5012829;28;20056;-91
2023/07/01 07:26:56;;;;;;;5.10;4.00;;;23.50;94.20;;;;;;5013271;28;20458;-84
2023/07/01 07:29:26;;;;;;;4.10;3.70;;;23.60;94.20;;;;;;5012884;28;20033;-84
2023/07/01 07:31:52;;;;;;;4.28;3.50;;;23.60;94.40;;;;;;5012549;28;20032;-84
2023/07/01 07:34:18;;;;;;;4.30;3.90;;;23.60;94.10;;;;;;4995637;28;20366;-83
2023/07/01 07:36:43;;;;;;;5.85;3.30;;;23.60;94.00;;;;;;5013553;28;20100;-84
2023/07/01 07:39:13;;;;;;;4.90;4.03;;;23.60;94.00;;;;;;5016873;28;20509;-84
2023/07/01 07:41:40;;;;;;;6.22;3.67;;;23.60;94.00;;;;;;4998860;28;20030;-84
2023/07/01 07:44:06;;;;;;;3.63;3.25;;;23.60;94.00;;;;;;4999355;28;20033;-84
2023/07/01 07:46:35;;;;;;;5.95;3.80;;;23.60;94.20;;;;;;5016840;28;20480;-84
2023/07/01 07:49:01;;;;;;;4.70;3.50;;;23.60;94.00;;;;;;5016791;28;20101;-84
2023/07/01 07:51:27;;;;;;;3.60;3.30;;;23.70;93.90;;;;;;4999052;28;20419;-84
2023/07/01 07:53:53;;;;;;;5.28;3.83;;;23.70;93.50;;;;;;4998199;28;20072;-84
2023/07/01 07:56:19;;;;;;;5.45;3.58;;;23.70;93.50;;;;;;5016210;28;20042;-84
2023/07/01 07:58:45;;;;;;;4.60;3.25;;;23.70;93.20;;;;;;4998756;28;20470;-84
2023/07/01 08:01:11;;;;;;;3.78;3.25;;;23.70;93.50;;;;;;5016450;28;20026;-84
2023/07/01 08:03:38;;;;;;;5.00;3.53;;;23.70;93.50;;;;;;5016180;28;20486;-84
2023/07/01 08:06:04;;;;;;;4.00;3.25;;;23.70;93.50;;;;;;4998573;28;20029;-83
2023/07/01 08:08:30;;;;;;;5.25;3.80;;;23.80;93.40;;;;;;5016293;28;20030;-84
2023/07/01 08:10:56;;;;;;;4.40;3.55;;;23.80;93.60;;;;;;5016029;28;20482;-84
2023/07/01 08:13:22;;;;;;;4.57;3.90;;;23.80;93.90;;;;;;5015823;28;20033;-84
2023/07/01 08:15:48;;;;;;;3.95;3.47;;;23.90;93.70;;;;;;5016149;28;20030;-84
2023/07/01 08:18:13;;;;;;;6.10;3.83;;;23.90;93.50;;;;;;4998194;28;20045;-84
2023/07/01 08:20:39;;;;;;;5.18;3.45;;;23.90;93.60;;;;;;5015886;28;20053;-85
2023/07/01 08:23:05;;;;;;;3.20;2.90;;;24.00;93.40;;;;;;5015671;28;20026;-84
2023/07/01 08:25:31;;;;;;;4.82;3.13;;;24.00;93.40;;;;;;5014879;28;20018;-84
2023/07/01 08:27:58;;;;;;;3.45;3.00;;;24.00;93.30;;;;;;5015321;28;20053;-84
2023/07/01 08:30:24;;;;;;;3.15;2.85;;;24.00;93.20;;;;;;5015394;28;20045;-84
2023/07/01 08:32:49;;;;;;;4.03;3.03;;;24.10;93.20;;;;;;4998194;28;20041;-84
2023/07/01 08:35:15;;;;;;;4.97;3.42;;;24.10;93.20;;;;;;5014989;28;20037;-84
2023/07/01 08:37:41;;;;;;;5.30;3.42;;;24.10;93.10;;;;;;5009081;28;20033;-83
2023/07/01 08:40:10;;;;;;;4.18;3.35;;;24.10;93.10;;;;;;4998831;28;20360;-83
2023/07/01 08:42:45;;;;;;;34.88;30.77;;;24.20;93.10;;;;;;4995822;28;20390;-85
2023/07/01 08:45:11;;;;;;;27.83;22.35;;;24.20;92.90;;;;;;4987885;28;20026;-85
2023/07/01 08:47:38;;;;;;;25.70;21.17;;;24.20;92.40;;;;;;4997786;28;20030;-84
2023/07/01 08:50:05;;;;;;;8.38;6.95;;;24.30;92.50;;;;;;4989699;28;20340;-85
2023/07/01 08:52:45;;;;;;;5.57;3.60;;;24.30;92.50;;;;;;4995067;28;20417;-85
2023/07/01 08:55:11;;;;;;;4.70;3.15;;;24.30;92.50;;;;;;4983107;28;20096;-84
2023/07/01 08:57:41;;;;;;;2.88;2.50;;;24.40;92.70;;;;;;4995851;28;20482;-84
2023/07/01 09:00:12;;;;;;;3.10;2.45;;;24.40;92.80;;;;;;4997078;28;20430;-84
2023/07/01 09:02:39;;;;;;;4.20;2.47;;;24.40;92.60;;;;;;5014426;28;20366;-85
2023/07/01 09:05:05;;;;;;;7.30;2.92;;;24.50;92.80;;;;;;4996686;28;20037;-85
2023/07/01 09:07:31;;;;;;;10.30;3.88;;;24.60;92.60;;;;;;4993851;28;20053;-84
2023/07/01 09:09:57;;;;;;;7.03;2.90;;;24.70;92.30;;;;;;5002837;28;20035;-85
2023/07/01 09:12:27;;;;;;;3.60;3.05;;;24.70;92.20;;;;;;4977793;28;20430;-85
2023/07/01 09:15:00;;;;;;;4.28;2.60;;;24.70;92.30;;;;;;4979949;28;20033;-85
2023/07/01 09:17:37;;;;;;;5.45;3.72;;;24.80;92.60;;;;;;5015024;28;20034;-85
2023/07/01 09:20:05;;;;;;;4.93;3.45;;;24.80;92.50;;;;;;5013598;28;20037;-84
2023/07/01 09:22:32;;;;;;;4.40;2.80;;;24.90;92.60;;;;;;5014308;28;20030;-84
2023/07/01 09:24:57;;;;;;;4.43;2.97;;;25.00;92.50;;;;;;4996444;28;20124;-84
2023/07/01 09:27:24;;;;;;;2.95;2.40;;;25.10;92.70;;;;;;5013196;28;20108;-84
2023/07/01 09:29:52;;;;;;;4.15;2.67;;;25.20;92.50;;;;;;4996426;28;20065;-84
2023/07/01 09:32:32;;;;;;;4.07;2.92;;;25.30;92.20;;;;;;4985657;28;20069;-84
2023/07/01 09:34:59;;;;;;;4.20;2.72;;;25.30;91.50;;;;;;5001276;28;20033;-84
2023/07/01 09:37:25;;;;;;;3.65;2.50;;;25.30;91.50;;;;;;5014019;28;20030;-84
2023/07/01 09:39:51;;;;;;;3.95;3.08;;;25.20;91.40;;;;;;5013806;28;20034;-84
2023/07/01 09:42:21;;;;;;;4.38;2.90;;;25.20;91.10;;;;;;4995093;28;20048;-84
2023/07/01 09:45:06;;;;;;;3.75;2.88;;;25.20;91.20;;;;;;5013922;28;20022;-84
2023/07/01 09:47:33;;;;;;;5.50;2.88;;;25.20;91.50;;;;;;5002341;28;20379;-84
2023/07/01 09:49:59;;;;;;;6.65;3.38;;;25.40;91.80;;;;;;4987482;28;20247;-84
2023/07/01 09:52:33;;;;;;;5.32;3.03;;;25.50;91.60;;;;;;4995431;28;20410;-84
2023/07/01 09:55:02;;;;;;;4.18;2.88;;;25.70;91.30;;;;;;4995891;28;20025;-84
2023/07/01 09:57:28;;;;;;;5.15;3.30;;;25.90;91.20;;;;;;4996589;28;20034;-85
2023/07/01 09:59:54;;;;;;;4.50;3.47;;;26.00;90.60;;;;;;4996243;28;20363;-84
2023/07/01 10:02:22;;;;;;;4.38;3.22;;;26.00;90.20;;;;;;5013342;28;20045;-84
2023/07/01 10:04:50;;;;;;;3.90;3.40;;;26.20;90.40;;;;;;4995026;28;20022;-83
2023/07/01 10:07:16;;;;;;;3.40;2.63;;;26.00;90.40;;;;;;5013439;28;20061;-84
2023/07/01 10:09:51;;;;;;;4.68;2.63;;;26.00;90.40;;;;;;4996326;28;20096;-90
2023/07/01 10:12:17;;;;;;;5.50;3.45;;;26.10;90.20;;;;;;5013609;28;20046;-91
2023/07/01 10:14:48;;;;;;;6.05;3.38;;;26.10;88.10;;;;;;5014374;28;20478;-91
2023/07/01 10:17:15;;;;;;;3.38;2.53;;;26.00;88.80;;;;;;5013575;28;20026;-92
2023/07/01 10:19:46;;;;;;;3.53;2.80;;;26.00;89.00;;;;;;5013824;28;20017;-92
2023/07/01 10:22:26;;;;;;;5.68;3.10;;;26.10;89.20;;;;;;5013833;28;20029;-91
2023/07/01 10:25:03;;;;;;;;;;;26.30;88.30;;;;;;5013936;28;20036;-91
2023/07/01 10:27:43;;;;;;;3.72;2.40;;;26.50;88.80;;;;;;4998476;28;19916;-91
2023/07/01 10:30:13;;;;;;;3.83;3.22;;;26.60;88.70;;;;;;5016890;28;20030;-92
2023/07/01 10:32:39;;;;;;;4.57;3.07;;;26.80;87.50;;;;;;5016386;28;20022;-91
2023/07/01 10:35:04;;;;;;;4.85;2.88;;;26.80;85.70;;;;;;5014804;28;20389;-91
2023/07/01 10:37:33;;;;;;;4.45;2.90;;;26.80;85.80;;;;;;4996053;28;20029;-91
2023/07/01 10:40:00;;;;;;;4.53;3.30;;;26.80;86.50;;;;;;5013623;28;20109;-91
2023/07/01 10:42:31;;;;;;;6.53;3.33;;;26.80;86.50;;;;;;4995611;28;20038;-91
2023/07/01 10:45:11;;;;;;;4.85;3.20;;;26.80;86.70;;;;;;5013648;28;20092;-91
2023/07/01 10:47:37;;;;;;;4.22;2.75;;;26.90;86.50;;;;;;5013510;28;20489;-91
2023/07/01 10:50:05;;;;;;;3.75;3.10;;;26.90;86.70;;;;;;5013623;28;20022;-92
2023/07/01 10:52:32;;;;;;;3.75;2.85;;;26.90;86.90;;;;;;5013100;28;20112;-92
2023/07/01 10:55:00;;;;;;;5.47;3.40;;;26.90;86.40;;;;;;5012761;28;20386;-90
2023/07/01 10:57:26;;;;;;;5.78;3.10;;;26.90;86.50;;;;;;5013061;28;20034;-90
2023/07/01 11:00:32;;;;;;;4.93;2.88;;;26.80;85.90;;;;;;5012991;28;20019;-90
2023/07/01 11:02:58;;;;;;;6.43;2.90;;;26.80;85.90;;;;;;5002392;28;20133;-89
2023/07/01 11:05:28;;;;;;;4.38;3.13;;;26.80;85.90;;;;;;5013142;28;20157;-90
2023/07/01 11:08:05;;;;;;;3.50;3.10;;;26.90;85.80;;;;;;5013391;28;20479;-90
2023/07/01 11:10:32;;;;;;;4.43;3.00;;;27.00;85.50;;;;;;5012854;28;20022;-90
2023/07/01 11:13:03;;;;;;;4.10;2.90;;;27.20;83.80;;;;;;5015390;28;20030;-90
2023/07/01 11:15:29;;;;;;;4.60;2.97;;;27.30;83.50;;;;;;4999390;28;20022;-90
2023/07/01 11:17:56;;;;;;;4.28;2.72;;;27.40;82.00;;;;;;5017026;28;20034;-90
2023/07/01 11:20:22;;;;;;;4.35;2.63;;;27.40;82.30;;;;;;4999098;28;20407;-90
2023/07/01 11:22:49;;;;;;;5.45;3.33;;;27.50;83.30;;;;;;5016671;28;20104;-90
2023/07/01 11:25:15;;;;;;;7.07;3.28;;;27.60;82.40;;;;;;5016609;28;20037;-91
2023/07/01 11:27:43;;;;;;;2.92;2.20;;;27.60;81.50;;;;;;5016486;28;20025;-90
2023/07/01 11:30:09;;;;;;;5.13;3.25;;;27.60;80.70;;;;;;5005210;28;20026;-92
2023/07/01 11:32:35;;;;;;;3.00;2.70;;;27.60;79.30;;;;;;5007935;28;20026;-91
2023/07/01 11:35:01;;;;;;;4.55;2.78;;;27.60;80.30;;;;;;5003161;28;20029;-91
2023/07/01 11:37:28;;;;;;;4.95;3.03;;;27.80;80.60;;;;;;4997839;28;20027;-92
2023/07/01 11:39:54;;;;;;;3.17;2.40;;;27.80;80.80;;;;;;4997061;28;20022;-92
2023/07/01 11:42:20;;;;;;;6.28;2.97;;;28.00;80.80;;;;;;4996514;28;20375;-91
2023/07/01 11:44:46;;;;;;;4.07;2.63;;;28.00;80.00;;;;;;5000003;28;20088;-90
2023/07/01 11:47:13;;;;;;;7.18;2.78;;;28.10;80.20;;;;;;5016228;28;20029;-90
2023/07/01 11:49:39;;;;;;;4.30;2.65;;;28.30;80.10;;;;;;5016191;28;20053;-90
2023/07/01 11:52:08;;;;;;;5.65;2.88;;;28.40;80.10;;;;;;4986310;28;20029;-92
2023/07/01 11:54:39;;;;;;;3.77;2.80;;;28.40;79.80;;;;;;5015857;28;20085;-91
2023/07/01 11:57:15;;;;;;;2.97;2.30;;;28.60;79.30;;;;;;5016059;28;20820;-92
2023/07/01 11:59:46;;;;;;;3.13;2.47;;;28.80;78.60;;;;;;5016336;28;20100;-92
2023/07/01 12:02:12;;;;;;;3.92;2.92;;;29.10;77.90;;;;;;4998335;28;20052;-92
2023/07/01 12:04:39;;;;;;;2.80;2.35;;;29.50;77.90;;;;;;5015967;28;20026;-91
2023/07/01 12:07:08;;;;;;;7.18;3.33;;;29.80;76.70;;;;;;5015843;28;20022;-91
2023/07/01 12:09:34;;;;;;;3.43;2.73;;;30.10;76.30;;;;;;5015919;28;20504;-92
2023/07/01 12:12:02;;;;;;;6.95;2.80;;;30.30;75.50;;;;;;5015403;28;20061;-91
2023/07/01 12:14:29;;;;;;;5.45;2.80;;;30.40;75.40;;;;;;5015977;28;20025;-92
2023/07/01 12:16:55;;;;;;;3.67;2.95;;;30.30;75.40;;;;;;5005129;28;20481;-91
2023/07/01 12:19:23;;;;;;;4.65;2.60;;;30.20;75.60;;;;;;5015915;28;20057;-91
2023/07/01 12:21:50;;;;;;;7.95;3.08;;;30.10;75.90;;;;;;5015751;28;20486;-91
2023/07/01 12:24:16;;;;;;;4.53;2.80;;;30.00;76.50;;;;;;5014277;28;20022;-92
2023/07/01 12:26:42;;;;;;;6.45;3.15;;;30.20;77.00;;;;;;5015475;28;20025;-92
2023/07/01 12:29:08;;;;;;;3.15;2.83;;;30.50;77.00;;;;;;4997881;28;20026;-91
2023/07/01 12:31:33;;;;;;;5.15;3.13;;;31.00;76.20;;;;;;5015437;28;20036;-91
2023/07/01 12:33:59;;;;;;;4.35;3.20;;;31.50;74.90;;;;;;5000648;28;20038;-92
2023/07/01 12:36:26;;;;;;;4.43;3.03;;;31.80;73.50;;;;;;4978567;28;20062;-92
2023/07/01 12:38:52;;;;;;;5.03;3.17;;;32.10;73.50;;;;;;4995729;28;20109;-92
2023/07/01 12:41:20;;;;;;;5.72;3.13;;;32.50;72.80;;;;;;4995838;28;20058;-91
2023/07/01 12:43:47;;;;;;;4.82;3.28;;;32.90;72.00;;;;;;4995854;28;20027;-92
2023/07/01 12:46:14;;;;;;;4.65;3.55;;;33.20;70.30;;;;;;5008779;28;20540;-92
2023/07/01 12:48:44;;;;;;;5.28;3.72;;;33.20;69.20;;;;;;4997530;28;20029;-92